sensor_id;sensor_type;location;lat;lon;timestamp;P1;durP1;ratioP1;P2;durP2;ratioP2
11911;SDS011;6016;41.928;25.556;2024-03-08T00:01:00;39.80;;;16.13;;
11911;SDS011;6016;41.928;25.556;2024-03-08T00:03:27;35.80;;;16.75;;
11911;SDS011;6016;41.928;25.556;2024-03-08T00:05:54;37.97;;;15.20;;
11911;SDS011;6016;41.928;25.556;2024-03-08T00:08:22;34.25;;;15.80;;
11911;SDS011;6016;41.928;25.556;2024-03-08T00:10:50;39.25;;;15.70;;
11911;SDS011;6016;41.928;25.556;2024-03-08T00:13:17;36.00;;;16.08;;
11911;SDS011;6016;41.928;25.556;2024-03-08T00:15:44;39.47;;;16.35;;
11911;SDS011;6016;41.928;25.556;2024-03-08T00:18:11;38.80;;;16.27;;
11911;SDS011;6016;41.928;25.556;2024-03-08T00:20:38;38.55;;;15.90;;
11911;SDS011;6016;41.928;25.556;2024-03-08T00:23:05;42.20;;;16.90;;
11911;SDS011;6016;41.928;25.556;2024-03-08T00:25:33;35.25;;;16.02;;
11911;SDS011;6016;41.928;25.556;2024-03-08T00:28:01;41.10;;;16.83;;
11911;SDS011;6016;41.928;25.556;2024-03-08T00:30:30;42.88;;;18.30;;
11911;SDS011;6016;41.928;25.556;2024-03-08T00:32:57;44.97;;;18.58;;
11911;SDS011;6016;41.928;25.556;2024-03-08T00:35:24;41.17;;;17.13;;
11911;SDS011;6016;41.928;25.556;2024-03-08T00:37:51;42.90;;;17.42;;
11911;SDS011;6016;41.928;25.556;2024-03-08T00:40:21;42.28;;;17.38;;
11911;SDS011;6016;41.928;25.556;2024-03-08T00:42:50;38.90;;;16.23;;
11911;SDS011;6016;41.928;25.556;2024-03-08T00:45:18;35.33;;;15.85;;
11911;SDS011;6016;41.928;25.556;2024-03-08T00:47:45;41.20;;;16.20;;
11911;SDS011;6016;41.928;25.556;2024-03-08T00:50:12;40.15;;;16.45;;
11911;SDS011;6016;41.928;25.556;2024-03-08T00:52:39;42.17;;;16.40;;
11911;SDS011;6016;41.928;25.556;2024-03-08T00:55:06;36.55;;;17.17;;
11911;SDS011;6016;41.928;25.556;2024-03-08T00:57:35;37.60;;;15.45;;
11911;SDS011;6016;41.928;25.556;2024-03-08T01:00:06;34.92;;;15.98;;
11911;SDS011;6016;41.928;25.556;2024-03-08T01:02:37;36.10;;;15.25;;
11911;SDS011;6016;41.928;25.556;2024-03-08T01:05:04;36.90;;;16.08;;
11911;SDS011;6016;41.928;25.556;2024-03-08T01:07:33;36.15;;;15.63;;
11911;SDS011;6016;41.928;25.556;2024-03-08T01:10:00;35.30;;;15.70;;
11911;SDS011;6016;41.928;25.556;2024-03-08T01:12:27;35.20;;;15.82;;
11911;SDS011;6016;41.928;25.556;2024-03-08T01:14:54;36.90;;;15.27;;
11911;SDS011;6016;41.928;25.556;2024-03-08T01:17:24;35.55;;;16.00;;
11911;SDS011;6016;41.928;25.556;2024-03-08T01:19:51;39.33;;;16.15;;
11911;SDS011;6016;41.928;25.556;2024-03-08T01:22:19;36.83;;;16.00;;
11911;SDS011;6016;41.928;25.556;2024-03-08T01:24:47;36.10;;;15.48;;
11911;SDS011;6016;41.928;25.556;2024-03-08T01:27:14;36.95;;;16.27;;
11911;SDS011;6016;41.928;25.556;2024-03-08T01:29:41;39.90;;;16.40;;
11911;SDS011;6016;41.928;25.556;2024-03-08T01:32:08;37.10;;;15.80;;
11911;SDS011;6016;41.928;25.556;2024-03-08T01:34:37;34.40;;;15.43;;
11911;SDS011;6016;41.928;25.556;2024-03-08T01:37:04;36.45;;;16.13;;
11911;SDS011;6016;41.928;25.556;2024-03-08T01:39:31;35.38;;;15.07;;
11911;SDS011;6016;41.928;25.556;2024-03-08T01:41:58;36.42;;;15.77;;
11911;SDS011;6016;41.928;25.556;2024-03-08T01:44:25;32.72;;;15.63;;
11911;SDS011;6016;41.928;25.556;2024-03-08T01:46:53;32.17;;;14.98;;
11911;SDS011;6016;41.928;25.556;2024-03-08T01:49:20;38.03;;;14.75;;
11911;SDS011;6016;41.928;25.556;2024-03-08T01:51:50;35.92;;;15.07;;
11911;SDS011;6016;41.928;25.556;2024-03-08T01:54:18;37.70;;;16.30;;
11911;SDS011;6016;41.928;25.556;2024-03-08T01:56:46;30.15;;;13.77;;
11911;SDS011;6016;41.928;25.556;2024-03-08T01:59:14;30.85;;;14.45;;
11911;SDS011;6016;41.928;25.556;2024-03-08T02:01:41;28.80;;;13.90;;
11911;SDS011;6016;41.928;25.556;2024-03-08T02:04:09;32.10;;;14.38;;
11911;SDS011;6016;41.928;25.556;2024-03-08T02:06:36;31.25;;;14.32;;
11911;SDS011;6016;41.928;25.556;2024-03-08T02:09:05;30.77;;;14.00;;
11911;SDS011;6016;41.928;25.556;2024-03-08T02:11:32;29.13;;;13.43;;
11911;SDS011;6016;41.928;25.556;2024-03-08T02:14:01;28.83;;;12.70;;
11911;SDS011;6016;41.928;25.556;2024-03-08T02:16:28;30.02;;;13.65;;
11911;SDS011;6016;41.928;25.556;2024-03-08T02:18:55;29.25;;;13.48;;
11911;SDS011;6016;41.928;25.556;2024-03-08T02:21:24;30.08;;;13.30;;
11911;SDS011;6016;41.928;25.556;2024-03-08T02:23:51;30.70;;;13.68;;
11911;SDS011;6016;41.928;25.556;2024-03-08T02:26:18;35.00;;;14.38;;
11911;SDS011;6016;41.928;25.556;2024-03-08T02:28:45;30.92;;;14.20;;
11911;SDS011;6016;41.928;25.556;2024-03-08T02:31:13;33.47;;;13.77;;
11911;SDS011;6016;41.928;25.556;2024-03-08T02:33:40;31.90;;;13.77;;
11911;SDS011;6016;41.928;25.556;2024-03-08T02:36:07;33.83;;;14.63;;
11911;SDS011;6016;41.928;25.556;2024-03-08T02:38:35;32.10;;;14.48;;
11911;SDS011;6016;41.928;25.556;2024-03-08T02:41:03;35.53;;;14.35;;
11911;SDS011;6016;41.928;25.556;2024-03-08T02:43:30;30.40;;;14.30;;
11911;SDS011;6016;41.928;25.556;2024-03-08T02:45:57;33.15;;;15.15;;
11911;SDS011;6016;41.928;25.556;2024-03-08T02:48:24;31.77;;;14.60;;
11911;SDS011;6016;41.928;25.556;2024-03-08T02:50:51;32.40;;;14.18;;
11911;SDS011;6016;41.928;25.556;2024-03-08T02:53:18;34.95;;;15.02;;
11911;SDS011;6016;41.928;25.556;2024-03-08T02:55:47;32.05;;;14.10;;
11911;SDS011;6016;41.928;25.556;2024-03-08T02:58:14;31.92;;;14.23;;
11911;SDS011;6016;41.928;25.556;2024-03-08T03:00:41;33.25;;;14.18;;
11911;SDS011;6016;41.928;25.556;2024-03-08T03:03:09;26.10;;;12.40;;
11911;SDS011;6016;41.928;25.556;2024-03-08T03:05:36;31.90;;;15.55;;
11911;SDS011;6016;41.928;25.556;2024-03-08T03:08:03;34.88;;;14.57;;
11911;SDS011;6016;41.928;25.556;2024-03-08T03:10:34;38.65;;;15.95;;
11911;SDS011;6016;41.928;25.556;2024-03-08T03:13:02;32.70;;;14.80;;
11911;SDS011;6016;41.928;25.556;2024-03-08T03:15:30;38.95;;;16.67;;
11911;SDS011;6016;41.928;25.556;2024-03-08T03:17:56;37.88;;;16.13;;
11911;SDS011;6016;41.928;25.556;2024-03-08T03:20:23;37.35;;;17.17;;
11911;SDS011;6016;41.928;25.556;2024-03-08T03:22:52;37.65;;;16.77;;
11911;SDS011;6016;41.928;25.556;2024-03-08T03:25:19;36.88;;;15.80;;
11911;SDS011;6016;41.928;25.556;2024-03-08T03:27:50;40.75;;;16.90;;
11911;SDS011;6016;41.928;25.556;2024-03-08T03:30:23;39.92;;;16.70;;
11911;SDS011;6016;41.928;25.556;2024-03-08T03:32:51;38.15;;;15.45;;
11911;SDS011;6016;41.928;25.556;2024-03-08T03:35:19;37.95;;;16.85;;
11911;SDS011;6016;41.928;25.556;2024-03-08T03:37:47;36.00;;;15.30;;
11911;SDS011;6016;41.928;25.556;2024-03-08T03:40:26;37.30;;;15.45;;
11911;SDS011;6016;41.928;25.556;2024-03-08T03:42:54;34.67;;;14.95;;
11911;SDS011;6016;41.928;25.556;2024-03-08T03:45:22;30.80;;;14.23;;
11911;SDS011;6016;41.928;25.556;2024-03-08T03:47:49;32.08;;;14.48;;
11911;SDS011;6016;41.928;25.556;2024-03-08T03:50:17;31.88;;;13.70;;
11911;SDS011;6016;41.928;25.556;2024-03-08T03:52:44;30.17;;;13.88;;
11911;SDS011;6016;41.928;25.556;2024-03-08T03:55:11;34.70;;;14.88;;
11911;SDS011;6016;41.928;25.556;2024-03-08T03:57:38;30.52;;;14.32;;
11911;SDS011;6016;41.928;25.556;2024-03-08T04:00:06;35.28;;;14.50;;
11911;SDS011;6016;41.928;25.556;2024-03-08T04:02:37;37.92;;;14.88;;
11911;SDS011;6016;41.928;25.556;2024-03-08T04:05:04;35.90;;;15.38;;
11911;SDS011;6016;41.928;25.556;2024-03-08T04:07:32;39.60;;;15.90;;
11911;SDS011;6016;41.928;25.556;2024-03-08T04:09:59;34.33;;;15.18;;
11911;SDS011;6016;41.928;25.556;2024-03-08T04:12:27;35.78;;;14.98;;
11911;SDS011;6016;41.928;25.556;2024-03-08T04:14:55;33.08;;;15.95;;
11911;SDS011;6016;41.928;25.556;2024-03-08T04:17:22;35.67;;;16.10;;
11911;SDS011;6016;41.928;25.556;2024-03-08T04:19:52;30.75;;;13.90;;
11911;SDS011;6016;41.928;25.556;2024-03-08T04:22:19;37.50;;;15.52;;
11911;SDS011;6016;41.928;25.556;2024-03-08T04:24:46;36.72;;;16.70;;
11911;SDS011;6016;41.928;25.556;2024-03-08T04:27:13;34.83;;;15.48;;
11911;SDS011;6016;41.928;25.556;2024-03-08T04:29:40;37.00;;;16.25;;
11911;SDS011;6016;41.928;25.556;2024-03-08T04:32:08;39.45;;;15.65;;
11911;SDS011;6016;41.928;25.556;2024-03-08T04:34:35;31.90;;;15.48;;
11911;SDS011;6016;41.928;25.556;2024-03-08T04:37:03;40.40;;;17.55;;
11911;SDS011;6016;41.928;25.556;2024-03-08T04:39:31;41.10;;;17.65;;
11911;SDS011;6016;41.928;25.556;2024-03-08T04:41:58;42.25;;;17.75;;
11911;SDS011;6016;41.928;25.556;2024-03-08T04:44:29;50.60;;;20.05;;
11911;SDS011;6016;41.928;25.556;2024-03-08T04:46:58;52.45;;;21.02;;
11911;SDS011;6016;41.928;25.556;2024-03-08T04:49:25;46.92;;;19.42;;
11911;SDS011;6016;41.928;25.556;2024-03-08T04:51:53;45.65;;;18.42;;
11911;SDS011;6016;41.928;25.556;2024-03-08T04:54:21;52.35;;;18.35;;
11911;SDS011;6016;41.928;25.556;2024-03-08T04:56:49;41.65;;;18.15;;
11911;SDS011;6016;41.928;25.556;2024-03-08T04:59:16;50.00;;;18.65;;
11911;SDS011;6016;41.928;25.556;2024-03-08T05:01:43;36.00;;;16.00;;
11911;SDS011;6016;41.928;25.556;2024-03-08T05:04:10;44.85;;;18.17;;
11911;SDS011;6016;41.928;25.556;2024-03-08T05:06:37;41.58;;;18.35;;
11911;SDS011;6016;41.928;25.556;2024-03-08T05:09:04;47.63;;;18.15;;
11911;SDS011;6016;41.928;25.556;2024-03-08T05:11:40;39.55;;;16.83;;
11911;SDS011;6016;41.928;25.556;2024-03-08T05:14:07;43.78;;;18.63;;
11911;SDS011;6016;41.928;25.556;2024-03-08T05:16:35;47.33;;;19.15;;
11911;SDS011;6016;41.928;25.556;2024-03-08T05:19:02;48.53;;;19.55;;
11911;SDS011;6016;41.928;25.556;2024-03-08T05:21:29;40.75;;;17.65;;
11911;SDS011;6016;41.928;25.556;2024-03-08T05:23:56;39.70;;;18.30;;
11911;SDS011;6016;41.928;25.556;2024-03-08T05:26:23;47.55;;;18.38;;
11911;SDS011;6016;41.928;25.556;2024-03-08T05:28:51;41.47;;;16.85;;
11911;SDS011;6016;41.928;25.556;2024-03-08T05:31:19;42.72;;;18.10;;
11911;SDS011;6016;41.928;25.556;2024-03-08T05:33:48;41.88;;;18.08;;
11911;SDS011;6016;41.928;25.556;2024-03-08T05:36:15;44.50;;;18.00;;
11911;SDS011;6016;41.928;25.556;2024-03-08T05:38:42;47.03;;;18.08;;
11911;SDS011;6016;41.928;25.556;2024-03-08T05:41:10;44.15;;;16.95;;
11911;SDS011;6016;41.928;25.556;2024-03-08T05:43:37;43.88;;;18.60;;
11911;SDS011;6016;41.928;25.556;2024-03-08T05:46:05;37.15;;;16.52;;
11911;SDS011;6016;41.928;25.556;2024-03-08T05:48:33;42.75;;;18.42;;
11911;SDS011;6016;41.928;25.556;2024-03-08T05:51:00;40.53;;;17.02;;
11911;SDS011;6016;41.928;25.556;2024-03-08T05:53:28;44.03;;;18.02;;
11911;SDS011;6016;41.928;25.556;2024-03-08T05:55:57;41.60;;;18.20;;
11911;SDS011;6016;41.928;25.556;2024-03-08T05:58:24;39.45;;;16.08;;
11911;SDS011;6016;41.928;25.556;2024-03-08T06:00:51;41.60;;;18.15;;
11911;SDS011;6016;41.928;25.556;2024-03-08T06:03:20;44.28;;;17.45;;
11911;SDS011;6016;41.928;25.556;2024-03-08T06:05:47;38.35;;;16.92;;
11911;SDS011;6016;41.928;25.556;2024-03-08T06:08:14;39.80;;;17.50;;
11911;SDS011;6016;41.928;25.556;2024-03-08T06:10:41;43.72;;;17.60;;
11911;SDS011;6016;41.928;25.556;2024-03-08T06:13:08;40.53;;;17.52;;
11911;SDS011;6016;41.928;25.556;2024-03-08T06:15:37;40.00;;;18.60;;
11911;SDS011;6016;41.928;25.556;2024-03-08T06:18:04;41.20;;;18.15;;
11911;SDS011;6016;41.928;25.556;2024-03-08T06:20:37;38.40;;;16.80;;
11911;SDS011;6016;41.928;25.556;2024-03-08T06:23:04;40.58;;;17.85;;
11911;SDS011;6016;41.928;25.556;2024-03-08T06:25:31;37.47;;;17.15;;
11911;SDS011;6016;41.928;25.556;2024-03-08T06:27:58;43.38;;;17.35;;
11911;SDS011;6016;41.928;25.556;2024-03-08T06:30:25;46.28;;;17.75;;
11911;SDS011;6016;41.928;25.556;2024-03-08T06:32:52;40.80;;;18.50;;
11911;SDS011;6016;41.928;25.556;2024-03-08T06:35:19;43.90;;;19.02;;
11911;SDS011;6016;41.928;25.556;2024-03-08T06:37:48;41.85;;;18.63;;
11911;SDS011;6016;41.928;25.556;2024-03-08T06:40:15;45.90;;;18.38;;
11911;SDS011;6016;41.928;25.556;2024-03-08T06:42:42;40.42;;;17.52;;
11911;SDS011;6016;41.928;25.556;2024-03-08T06:45:09;44.20;;;17.80;;
11911;SDS011;6016;41.928;25.556;2024-03-08T06:47:37;40.65;;;17.75;;
11911;SDS011;6016;41.928;25.556;2024-03-08T06:50:07;43.30;;;18.20;;
11911;SDS011;6016;41.928;25.556;2024-03-08T06:52:34;38.22;;;16.77;;
11911;SDS011;6016;41.928;25.556;2024-03-08T06:55:03;44.85;;;18.38;;
11911;SDS011;6016;41.928;25.556;2024-03-08T06:57:30;40.13;;;18.27;;
11911;SDS011;6016;41.928;25.556;2024-03-08T06:59:57;41.72;;;19.27;;
11911;SDS011;6016;41.928;25.556;2024-03-08T07:02:24;40.90;;;19.02;;
11911;SDS011;6016;41.928;25.556;2024-03-08T07:04:51;38.20;;;18.38;;
11911;SDS011;6016;41.928;25.556;2024-03-08T07:07:19;34.20;;;15.90;;
11911;SDS011;6016;41.928;25.556;2024-03-08T07:09:46;41.60;;;18.67;;
11911;SDS011;6016;41.928;25.556;2024-03-08T07:12:16;40.85;;;17.77;;
11911;SDS011;6016;41.928;25.556;2024-03-08T07:14:43;41.95;;;18.65;;
11911;SDS011;6016;41.928;25.556;2024-03-08T07:17:10;36.40;;;16.88;;
11911;SDS011;6016;41.928;25.556;2024-03-08T07:19:38;40.42;;;19.00;;
11911;SDS011;6016;41.928;25.556;2024-03-08T07:22:05;38.92;;;19.02;;
11911;SDS011;6016;41.928;25.556;2024-03-08T07:24:34;42.70;;;19.92;;
11911;SDS011;6016;41.928;25.556;2024-03-08T07:27:22;40.08;;;17.67;;
11911;SDS011;6016;41.928;25.556;2024-03-08T07:29:49;38.25;;;17.13;;
11911;SDS011;6016;41.928;25.556;2024-03-08T07:32:16;36.70;;;15.75;;
11911;SDS011;6016;41.928;25.556;2024-03-08T07:34:46;35.70;;;15.80;;
11911;SDS011;6016;41.928;25.556;2024-03-08T07:37:15;37.65;;;16.27;;
11911;SDS011;6016;41.928;25.556;2024-03-08T07:39:43;36.25;;;15.77;;
11911;SDS011;6016;41.928;25.556;2024-03-08T07:42:10;32.42;;;14.75;;
11911;SDS011;6016;41.928;25.556;2024-03-08T07:44:39;31.98;;;13.77;;
11911;SDS011;6016;41.928;25.556;2024-03-08T07:47:06;34.90;;;16.15;;
11911;SDS011;6016;41.928;25.556;2024-03-08T07:49:34;34.33;;;16.02;;
11911;SDS011;6016;41.928;25.556;2024-03-08T07:52:02;42.17;;;19.27;;
11911;SDS011;6016;41.928;25.556;2024-03-08T07:54:32;34.33;;;16.02;;
11911;SDS011;6016;41.928;25.556;2024-03-08T07:57:00;39.92;;;17.15;;
11911;SDS011;6016;41.928;25.556;2024-03-08T07:59:28;45.05;;;20.33;;
11911;SDS011;6016;41.928;25.556;2024-03-08T08:01:57;42.33;;;18.80;;
11911;SDS011;6016;41.928;25.556;2024-03-08T08:04:24;46.95;;;20.55;;
11911;SDS011;6016;41.928;25.556;2024-03-08T08:06:52;34.35;;;15.57;;
11911;SDS011;6016;41.928;25.556;2024-03-08T08:09:20;36.53;;;16.67;;
11911;SDS011;6016;41.928;25.556;2024-03-08T08:11:53;35.03;;;16.60;;
11911;SDS011;6016;41.928;25.556;2024-03-08T08:14:21;31.35;;;15.02;;
11911;SDS011;6016;41.928;25.556;2024-03-08T08:16:48;41.17;;;17.77;;
11911;SDS011;6016;41.928;25.556;2024-03-08T08:19:19;33.78;;;15.63;;
11911;SDS011;6016;41.928;25.556;2024-03-08T08:21:46;33.17;;;14.48;;
11911;SDS011;6016;41.928;25.556;2024-03-08T08:24:13;35.22;;;17.92;;
11911;SDS011;6016;41.928;25.556;2024-03-08T08:26:40;35.28;;;16.48;;
11911;SDS011;6016;41.928;25.556;2024-03-08T08:29:07;35.00;;;15.77;;
11911;SDS011;6016;41.928;25.556;2024-03-08T08:31:34;40.60;;;18.80;;
11911;SDS011;6016;41.928;25.556;2024-03-08T08:34:01;31.83;;;16.08;;
11911;SDS011;6016;41.928;25.556;2024-03-08T08:36:30;32.47;;;14.50;;
11911;SDS011;6016;41.928;25.556;2024-03-08T08:38:57;35.05;;;14.88;;
11911;SDS011;6016;41.928;25.556;2024-03-08T08:41:24;35.03;;;15.52;;
11911;SDS011;6016;41.928;25.556;2024-03-08T08:43:52;37.78;;;16.48;;
11911;SDS011;6016;41.928;25.556;2024-03-08T08:46:19;34.30;;;15.85;;
11911;SDS011;6016;41.928;25.556;2024-03-08T08:48:46;42.97;;;20.40;;
11911;SDS011;6016;41.928;25.556;2024-03-08T08:51:14;34.90;;;16.70;;
11911;SDS011;6016;41.928;25.556;2024-03-08T08:53:43;32.92;;;16.27;;
11911;SDS011;6016;41.928;25.556;2024-03-08T08:56:10;37.80;;;17.55;;
11911;SDS011;6016;41.928;25.556;2024-03-08T08:58:38;34.67;;;15.57;;
11911;SDS011;6016;41.928;25.556;2024-03-08T09:01:06;37.40;;;16.42;;
11911;SDS011;6016;41.928;25.556;2024-03-08T09:03:35;36.70;;;17.00;;
11911;SDS011;6016;41.928;25.556;2024-03-08T09:06:02;45.40;;;18.75;;
11911;SDS011;6016;41.928;25.556;2024-03-08T09:08:29;36.65;;;16.88;;
11911;SDS011;6016;41.928;25.556;2024-03-08T09:10:58;43.15;;;20.67;;
11911;SDS011;6016;41.928;25.556;2024-03-08T09:13:26;39.53;;;16.75;;
11911;SDS011;6016;41.928;25.556;2024-03-08T09:15:53;38.10;;;18.75;;
11911;SDS011;6016;41.928;25.556;2024-03-08T09:18:20;38.42;;;17.45;;
11911;SDS011;6016;41.928;25.556;2024-03-08T09:20:47;36.83;;;17.17;;
11911;SDS011;6016;41.928;25.556;2024-03-08T09:23:14;37.90;;;16.67;;
11911;SDS011;6016;41.928;25.556;2024-03-08T09:25:42;36.28;;;16.67;;
11911;SDS011;6016;41.928;25.556;2024-03-08T09:28:10;35.60;;;15.85;;
11911;SDS011;6016;41.928;25.556;2024-03-08T09:30:38;37.13;;;16.88;;
11911;SDS011;6016;41.928;25.556;2024-03-08T09:33:05;30.08;;;15.10;;
11911;SDS011;6016;41.928;25.556;2024-03-08T09:35:32;34.63;;;16.75;;
11911;SDS011;6016;41.928;25.556;2024-03-08T09:38:00;33.58;;;16.58;;
11911;SDS011;6016;41.928;25.556;2024-03-08T09:40:26;35.67;;;15.95;;
11911;SDS011;6016;41.928;25.556;2024-03-08T09:42:53;32.35;;;15.52;;
11911;SDS011;6016;41.928;25.556;2024-03-08T09:45:22;30.95;;;14.85;;
11911;SDS011;6016;41.928;25.556;2024-03-08T09:47:51;32.03;;;15.27;;
11911;SDS011;6016;41.928;25.556;2024-03-08T09:50:19;35.72;;;14.75;;
11911;SDS011;6016;41.928;25.556;2024-03-08T09:52:47;30.98;;;14.50;;
11911;SDS011;6016;41.928;25.556;2024-03-08T09:55:15;34.47;;;15.88;;
11911;SDS011;6016;41.928;25.556;2024-03-08T09:57:47;32.13;;;15.23;;
11911;SDS011;6016;41.928;25.556;2024-03-08T10:00:30;33.47;;;14.45;;
11911;SDS011;6016;41.928;25.556;2024-03-08T10:03:00;34.67;;;15.82;;
11911;SDS011;6016;41.928;25.556;2024-03-08T10:05:27;58.70;;;25.00;;
11911;SDS011;6016;41.928;25.556;2024-03-08T10:07:55;68.63;;;26.90;;
11911;SDS011;6016;41.928;25.556;2024-03-08T10:10:22;44.10;;;19.15;;
11911;SDS011;6016;41.928;25.556;2024-03-08T10:12:49;29.73;;;13.85;;
11911;SDS011;6016;41.928;25.556;2024-03-08T10:15:16;29.52;;;13.60;;
11911;SDS011;6016;41.928;25.556;2024-03-08T10:17:44;30.17;;;14.13;;
11911;SDS011;6016;41.928;25.556;2024-03-08T10:20:14;25.45;;;13.00;;
11911;SDS011;6016;41.928;25.556;2024-03-08T10:22:42;32.85;;;15.98;;
11911;SDS011;6016;41.928;25.556;2024-03-08T10:25:09;26.85;;;13.77;;
11911;SDS011;6016;41.928;25.556;2024-03-08T10:27:38;27.70;;;13.60;;
11911;SDS011;6016;41.928;25.556;2024-03-08T10:30:06;30.38;;;12.98;;
11911;SDS011;6016;41.928;25.556;2024-03-08T10:32:38;28.73;;;13.90;;
11911;SDS011;6016;41.928;25.556;2024-03-08T10:35:08;27.13;;;12.80;;
11911;SDS011;6016;41.928;25.556;2024-03-08T10:37:36;31.13;;;13.40;;
11911;SDS011;6016;41.928;25.556;2024-03-08T10:40:13;37.30;;;16.75;;
11911;SDS011;6016;41.928;25.556;2024-03-08T10:42:47;31.23;;;12.88;;
11911;SDS011;6016;41.928;25.556;2024-03-08T10:45:23;34.97;;;15.82;;
11911;SDS011;6016;41.928;25.556;2024-03-08T10:48:03;27.90;;;11.90;;
11911;SDS011;6016;41.928;25.556;2024-03-08T10:50:38;34.70;;;13.00;;
11911;SDS011;6016;41.928;25.556;2024-03-08T10:53:06;22.60;;;10.13;;
11911;SDS011;6016;41.928;25.556;2024-03-08T10:55:37;44.22;;;20.88;;
11911;SDS011;6016;41.928;25.556;2024-03-08T10:58:07;58.40;;;24.98;;
11911;SDS011;6016;41.928;25.556;2024-03-08T11:00:34;26.63;;;12.35;;
11911;SDS011;6016;41.928;25.556;2024-03-08T11:03:02;24.05;;;11.90;;
11911;SDS011;6016;41.928;25.556;2024-03-08T11:05:32;19.60;;;10.13;;
11911;SDS011;6016;41.928;25.556;2024-03-08T11:08:08;16.20;;;9.68;;
11911;SDS011;6016;41.928;25.556;2024-03-08T11:10:48;19.58;;;10.20;;
11911;SDS011;6016;41.928;25.556;2024-03-08T11:13:34;21.37;;;11.80;;
11911;SDS011;6016;41.928;25.556;2024-03-08T11:16:03;16.02;;;9.38;;
11911;SDS011;6016;41.928;25.556;2024-03-08T11:18:35;20.77;;;9.75;;
11911;SDS011;6016;41.928;25.556;2024-03-08T11:21:02;19.15;;;9.82;;
11911;SDS011;6016;41.928;25.556;2024-03-08T11:23:36;16.40;;;9.05;;
11911;SDS011;6016;41.928;25.556;2024-03-08T11:26:05;18.55;;;10.70;;
11911;SDS011;6016;41.928;25.556;2024-03-08T11:28:44;18.27;;;10.20;;
11911;SDS011;6016;41.928;25.556;2024-03-08T11:31:24;20.95;;;11.38;;
11911;SDS011;6016;41.928;25.556;2024-03-08T11:33:53;21.75;;;11.65;;
11911;SDS011;6016;41.928;25.556;2024-03-08T11:36:22;24.17;;;12.43;;
11911;SDS011;6016;41.928;25.556;2024-03-08T11:38:52;19.90;;;11.20;;
11911;SDS011;6016;41.928;25.556;2024-03-08T11:41:21;23.10;;;10.60;;
11911;SDS011;6016;41.928;25.556;2024-03-08T11:43:50;17.10;;;9.43;;
11911;SDS011;6016;41.928;25.556;2024-03-08T11:46:36;14.75;;;8.00;;
11911;SDS011;6016;41.928;25.556;2024-03-08T11:49:07;17.67;;;8.38;;
11911;SDS011;6016;41.928;25.556;2024-03-08T11:51:34;20.52;;;10.35;;
11911;SDS011;6016;41.928;25.556;2024-03-08T11:54:03;17.13;;;9.10;;
11911;SDS011;6016;41.928;25.556;2024-03-08T11:56:31;23.13;;;11.55;;
11911;SDS011;6016;41.928;25.556;2024-03-08T11:58:59;19.30;;;9.82;;
11911;SDS011;6016;41.928;25.556;2024-03-08T12:01:26;21.80;;;10.65;;
11911;SDS011;6016;41.928;25.556;2024-03-08T12:03:54;16.17;;;9.07;;
11911;SDS011;6016;41.928;25.556;2024-03-08T12:06:24;17.63;;;10.00;;
11911;SDS011;6016;41.928;25.556;2024-03-08T12:08:52;15.85;;;8.57;;
11911;SDS011;6016;41.928;25.556;2024-03-08T12:11:20;14.90;;;8.25;;
11911;SDS011;6016;41.928;25.556;2024-03-08T12:13:48;14.85;;;8.43;;
11911;SDS011;6016;41.928;25.556;2024-03-08T12:16:16;15.27;;;8.82;;
11911;SDS011;6016;41.928;25.556;2024-03-08T12:18:46;12.55;;;7.30;;
11911;SDS011;6016;41.928;25.556;2024-03-08T12:21:14;11.00;;;6.95;;
11911;SDS011;6016;41.928;25.556;2024-03-08T12:23:45;18.50;;;9.63;;
11911;SDS011;6016;41.928;25.556;2024-03-08T12:26:16;16.20;;;8.95;;
11911;SDS011;6016;41.928;25.556;2024-03-08T12:28:46;18.77;;;8.75;;
11911;SDS011;6016;41.928;25.556;2024-03-08T12:31:14;18.10;;;8.38;;
11911;SDS011;6016;41.928;25.556;2024-03-08T12:33:49;14.93;;;8.23;;
11911;SDS011;6016;41.928;25.556;2024-03-08T12:36:18;15.75;;;7.95;;
11911;SDS011;6016;41.928;25.556;2024-03-08T12:38:46;15.85;;;8.48;;
11911;SDS011;6016;41.928;25.556;2024-03-08T12:41:14;18.60;;;8.98;;
11911;SDS011;6016;41.928;25.556;2024-03-08T12:43:42;26.85;;;11.15;;
11911;SDS011;6016;41.928;25.556;2024-03-08T12:46:15;18.65;;;9.07;;
11911;SDS011;6016;41.928;25.556;2024-03-08T12:48:43;18.17;;;9.15;;
11911;SDS011;6016;41.928;25.556;2024-03-08T12:51:12;16.23;;;9.18;;
11911;SDS011;6016;41.928;25.556;2024-03-08T12:53:41;18.45;;;9.60;;
11911;SDS011;6016;41.928;25.556;2024-03-08T12:56:09;20.65;;;12.23;;
11911;SDS011;6016;41.928;25.556;2024-03-08T12:58:37;18.75;;;10.07;;
11911;SDS011;6016;41.928;25.556;2024-03-08T13:01:05;24.80;;;11.10;;
11911;SDS011;6016;41.928;25.556;2024-03-08T13:03:34;18.40;;;10.05;;
11911;SDS011;6016;41.928;25.556;2024-03-08T13:06:02;21.95;;;11.80;;
11911;SDS011;6016;41.928;25.556;2024-03-08T13:08:31;18.30;;;10.32;;
11911;SDS011;6016;41.928;25.556;2024-03-08T13:11:01;20.92;;;10.55;;
11911;SDS011;6016;41.928;25.556;2024-03-08T13:13:28;21.20;;;11.18;;
11911;SDS011;6016;41.928;25.556;2024-03-08T13:15:55;21.35;;;11.18;;
11911;SDS011;6016;41.928;25.556;2024-03-08T13:18:25;20.88;;;10.85;;
11911;SDS011;6016;41.928;25.556;2024-03-08T13:20:54;23.75;;;11.93;;
11911;SDS011;6016;41.928;25.556;2024-03-08T13:23:22;28.02;;;13.00;;
11911;SDS011;6016;41.928;25.556;2024-03-08T13:25:49;30.42;;;15.35;;
11911;SDS011;6016;41.928;25.556;2024-03-08T13:28:17;21.00;;;11.32;;
11911;SDS011;6016;41.928;25.556;2024-03-08T13:30:48;23.30;;;11.05;;
11911;SDS011;6016;41.928;25.556;2024-03-08T13:33:15;18.00;;;9.52;;
11911;SDS011;6016;41.928;25.556;2024-03-08T13:35:42;20.92;;;10.13;;
11911;SDS011;6016;41.928;25.556;2024-03-08T13:38:11;14.80;;;7.93;;
11911;SDS011;6016;41.928;25.556;2024-03-08T13:40:38;13.10;;;7.57;;
11911;SDS011;6016;41.928;25.556;2024-03-08T13:43:05;17.77;;;8.13;;
11911;SDS011;6016;41.928;25.556;2024-03-08T13:45:33;11.40;;;6.78;;
11911;SDS011;6016;41.928;25.556;2024-03-08T13:48:03;12.23;;;6.20;;
11911;SDS011;6016;41.928;25.556;2024-03-08T13:50:31;11.07;;;5.93;;
11911;SDS011;6016;41.928;25.556;2024-03-08T13:52:58;15.98;;;7.45;;
11911;SDS011;6016;41.928;25.556;2024-03-08T13:55:27;16.58;;;7.50;;
11911;SDS011;6016;41.928;25.556;2024-03-08T13:57:54;15.40;;;7.07;;
11911;SDS011;6016;41.928;25.556;2024-03-08T14:00:22;10.80;;;6.53;;
11911;SDS011;6016;41.928;25.556;2024-03-08T14:02:58;20.10;;;7.30;;
11911;SDS011;6016;41.928;25.556;2024-03-08T14:05:25;15.93;;;7.32;;
11911;SDS011;6016;41.928;25.556;2024-03-08T14:07:52;13.93;;;7.55;;
11911;SDS011;6016;41.928;25.556;2024-03-08T14:10:19;16.92;;;6.80;;
11911;SDS011;6016;41.928;25.556;2024-03-08T14:12:49;13.20;;;6.38;;
11911;SDS011;6016;41.928;25.556;2024-03-08T14:15:16;9.75;;;6.00;;
11911;SDS011;6016;41.928;25.556;2024-03-08T14:17:43;12.25;;;6.95;;
11911;SDS011;6016;41.928;25.556;2024-03-08T14:20:11;12.02;;;5.93;;
11911;SDS011;6016;41.928;25.556;2024-03-08T14:22:39;11.55;;;6.70;;
11911;SDS011;6016;41.928;25.556;2024-03-08T14:25:06;13.48;;;6.50;;
11911;SDS011;6016;41.928;25.556;2024-03-08T14:27:41;12.15;;;6.85;;
11911;SDS011;6016;41.928;25.556;2024-03-08T14:30:11;17.48;;;9.02;;